sensor_id;sensor_type;location;lat;lon;timestamp;temperature;humidity
9699;DHT22;10089;47.876;8.346;2022-09-03T00:00:15;13.60;99.90
9699;DHT22;10089;47.876;8.346;2022-09-03T00:03:16;13.60;99.90
9699;DHT22;10089;47.876;8.346;2022-09-03T00:06:17;13.50;99.90
9699;DHT22;10089;47.876;8.346;2022-09-03T00:14:10;13.80;99.90
9699;DHT22;10089;47.876;8.346;2022-09-03T00:16:47;13.90;99.90
9699;DHT22;10089;47.876;8.346;2022-09-03T00:19:21;14.00;99.90
9699;DHT22;10089;47.876;8.346;2022-09-03T00:21:54;14.10;99.90
9699;DHT22;10089;47.876;8.346;2022-09-03T00:24:22;14.20;99.90
9699;DHT22;10089;47.876;8.346;2022-09-03T00:26:52;14.20;99.90
9699;DHT22;10089;47.876;8.346;2022-09-03T00:29:35;14.20;99.90
9699;DHT22;10089;47.876;8.346;2022-09-03T00:32:19;14.30;99.90
9699;DHT22;10089;47.876;8.346;2022-09-03T00:34:51;14.30;99.90
9699;DHT22;10089;47.876;8.346;2022-09-03T00:37:21;14.40;99.90
9699;DHT22;10089;47.876;8.346;2022-09-03T00:39:47;14.30;99.90
9699;DHT22;10089;47.876;8.346;2022-09-03T00:42:28;14.40;99.90
9699;DHT22;10089;47.876;8.346;2022-09-03T00:45:07;14.40;99.90
9699;DHT22;10089;47.876;8.346;2022-09-03T00:53:27;14.50;99.90
9699;DHT22;10089;47.876;8.346;2022-09-03T00:56:07;14.40;99.90
9699;DHT22;10089;47.876;8.346;2022-09-03T00:58:57;14.50;99.90
9699;DHT22;10089;47.876;8.346;2022-09-03T01:04:57;14.50;99.90
9699;DHT22;10089;47.876;8.346;2022-09-03T01:13:33;14.40;99.90
9699;DHT22;10089;47.876;8.346;2022-09-03T01:24:54;14.50;99.90
9699;DHT22;10089;47.876;8.346;2022-09-03T01:30:07;14.60;99.90
9699;DHT22;10089;47.876;8.346;2022-09-03T01:33:12;14.60;99.90
9699;DHT22;10089;47.876;8.346;2022-09-03T01:35:47;14.60;99.90
9699;DHT22;10089;47.876;8.346;2022-09-03T01:46:44;14.60;99.90
9699;DHT22;10089;47.876;8.346;2022-09-03T01:49:37;14.70;99.90
9699;DHT22;10089;47.876;8.346;2022-09-03T01:52:13;14.70;99.90
9699;DHT22;10089;47.876;8.346;2022-09-03T02:00:16;14.80;99.90
9699;DHT22;10089;47.876;8.346;2022-09-03T02:02:46;14.70;99.90
9699;DHT22;10089;47.876;8.346;2022-09-03T02:05:16;14.70;99.90
9699;DHT22;10089;47.876;8.346;2022-09-03T02:07:49;14.70;99.90
9699;DHT22;10089;47.876;8.346;2022-09-03T02:10:20;14.70;99.90
9699;DHT22;10089;47.876;8.346;2022-09-03T02:13:00;14.70;99.90
9699;DHT22;10089;47.876;8.346;2022-09-03T02:15:28;14.60;99.90
9699;DHT22;10089;47.876;8.346;2022-09-03T02:18:00;14.40;99.90
9699;DHT22;10089;47.876;8.346;2022-09-03T02:20:27;14.30;99.90
9699;DHT22;10089;47.876;8.346;2022-09-03T02:22:55;14.20;99.90
9699;DHT22;10089;47.876;8.346;2022-09-03T02:25:28;14.10;99.90
9699;DHT22;10089;47.876;8.346;2022-09-03T02:27:55;14.10;99.90
9699;DHT22;10089;47.876;8.346;2022-09-03T02:30:20;14.20;99.90
9699;DHT22;10089;47.876;8.346;2022-09-03T02:32:47;14.20;99.90
9699;DHT22;10089;47.876;8.346;2022-09-03T02:35:13;14.20;99.90
9699;DHT22;10089;47.876;8.346;2022-09-03T02:37:38;14.20;99.90
9699;DHT22;10089;47.876;8.346;2022-09-03T02:40:05;14.20;99.90
9699;DHT22;10089;47.876;8.346;2022-09-03T02:42:34;14.20;99.90
9699;DHT22;10089;47.876;8.346;2022-09-03T02:45:24;14.30;99.90
9699;DHT22;10089;47.876;8.346;2022-09-03T02:47:55;14.30;99.90
9699;DHT22;10089;47.876;8.346;2022-09-03T02:50:22;14.30;99.90
9699;DHT22;10089;47.876;8.346;2022-09-03T02:52:49;14.20;99.90
9699;DHT22;10089;47.876;8.346;2022-09-03T02:55:15;14.10;99.90
9699;DHT22;10089;47.876;8.346;2022-09-03T02:57:41;14.20;99.90
9699;DHT22;10089;47.876;8.346;2022-09-03T03:00:07;14.20;99.90
9699;DHT22;10089;47.876;8.346;2022-09-03T03:02:33;14.10;99.90
9699;DHT22;10089;47.876;8.346;2022-09-03T03:04:59;14.10;99.90
9699;DHT22;10089;47.876;8.346;2022-09-03T03:07:28;14.20;99.90
9699;DHT22;10089;47.876;8.346;2022-09-03T03:09:56;14.10;99.90
9699;DHT22;10089;47.876;8.346;2022-09-03T03:12:22;14.10;99.90
9699;DHT22;10089;47.876;8.346;2022-09-03T03:14:49;14.10;99.90
9699;DHT22;10089;47.876;8.346;2022-09-03T03:17:15;14.00;99.90
9699;DHT22;10089;47.876;8.346;2022-09-03T03:19:41;14.10;99.90
9699;DHT22;10089;47.876;8.346;2022-09-03T03:22:07;14.10;99.90
9699;DHT22;10089;47.876;8.346;2022-09-03T03:24:32;14.10;99.90
9699;DHT22;10089;47.876;8.346;2022-09-03T03:26:58;14.10;99.90
9699;DHT22;10089;47.876;8.346;2022-09-03T03:29:24;14.10;99.90
9699;DHT22;10089;47.876;8.346;2022-09-03T03:31:50;14.00;99.90
9699;DHT22;10089;47.876;8.346;2022-09-03T03:34:16;14.10;99.90
9699;DHT22;10089;47.876;8.346;2022-09-03T03:36:42;14.10;99.90
9699;DHT22;10089;47.876;8.346;2022-09-03T03:39:08;14.10;99.90
9699;DHT22;10089;47.876;8.346;2022-09-03T03:41:35;14.10;99.90
9699;DHT22;10089;47.876;8.346;2022-09-03T03:44:05;14.10;99.90
9699;DHT22;10089;47.876;8.346;2022-09-03T03:46:39;14.10;99.90
9699;DHT22;10089;47.876;8.346;2022-09-03T03:49:06;14.10;99.90
9699;DHT22;10089;47.876;8.346;2022-09-03T03:51:33;14.10;99.90
9699;DHT22;10089;47.876;8.346;2022-09-03T03:54:00;14.10;99.90
9699;DHT22;10089;47.876;8.346;2022-09-03T03:56:26;13.90;99.90
9699;DHT22;10089;47.876;8.346;2022-09-03T03:58:53;13.90;99.90
9699;DHT22;10089;47.876;8.346;2022-09-03T04:01:21;13.80;99.90
9699;DHT22;10089;47.876;8.346;2022-09-03T04:03:48;13.70;99.90
9699;DHT22;10089;47.876;8.346;2022-09-03T04:06:16;13.60;99.90
9699;DHT22;10089;47.876;8.346;2022-09-03T04:08:43;13.50;99.90
9699;DHT22;10089;47.876;8.346;2022-09-03T04:11:11;13.40;99.90
9699;DHT22;10089;47.876;8.346;2022-09-03T04:13:40;13.40;99.90
9699;DHT22;10089;47.876;8.346;2022-09-03T04:16:07;13.30;99.90
9699;DHT22;10089;47.876;8.346;2022-09-03T04:18:33;13.30;99.90
9699;DHT22;10089;47.876;8.346;2022-09-03T04:21:27;13.30;99.90
9699;DHT22;10089;47.876;8.346;2022-09-03T04:23:53;13.20;99.90
9699;DHT22;10089;47.876;8.346;2022-09-03T04:26:27;13.20;99.90
9699;DHT22;10089;47.876;8.346;2022-09-03T04:29:00;13.10;99.90
9699;DHT22;10089;47.876;8.346;2022-09-03T04:31:27;13.10;99.90
9699;DHT22;10089;47.876;8.346;2022-09-03T04:33:53;13.20;99.90
9699;DHT22;10089;47.876;8.346;2022-09-03T04:36:24;13.20;99.90
9699;DHT22;10089;47.876;8.346;2022-09-03T04:38:51;13.10;99.90
9699;DHT22;10089;47.876;8.346;2022-09-03T04:41:26;13.30;99.90
9699;DHT22;10089;47.876;8.346;2022-09-03T04:43:53;13.20;99.90
9699;DHT22;10089;47.876;8.346;2022-09-03T04:46:20;13.30;99.90
9699;DHT22;10089;47.876;8.346;2022-09-03T04:48:49;13.30;99.90
9699;DHT22;10089;47.876;8.346;2022-09-03T04:51:19;13.40;99.90
9699;DHT22;10089;47.876;8.346;2022-09-03T04:53:47;13.30;99.90
9699;DHT22;10089;47.876;8.346;2022-09-03T04:56:22;13.40;99.90
9699;DHT22;10089;47.876;8.346;2022-09-03T04:58:53;13.40;99.90
9699;DHT22;10089;47.876;8.346;2022-09-03T05:01:22;13.50;99.90
9699;DHT22;10089;47.876;8.346;2022-09-03T05:03:48;13.50;99.90
9699;DHT22;10089;47.876;8.346;2022-09-03T05:06:16;13.40;99.90
9699;DHT22;10089;47.876;8.346;2022-09-03T05:08:46;13.60;99.90
9699;DHT22;10089;47.876;8.346;2022-09-03T05:11:12;13.60;99.90
9699;DHT22;10089;47.876;8.346;2022-09-03T05:13:38;13.60;99.90
9699;DHT22;10089;47.876;8.346;2022-09-03T05:16:06;13.60;99.90
9699;DHT22;10089;47.876;8.346;2022-09-03T05:18:33;13.70;99.90
9699;DHT22;10089;47.876;8.346;2022-09-03T05:21:05;13.60;99.90
9699;DHT22;10089;47.876;8.346;2022-09-03T05:23:35;13.70;99.90
9699;DHT22;10089;47.876;8.346;2022-09-03T05:26:03;13.60;99.90
9699;DHT22;10089;47.876;8.346;2022-09-03T05:28:34;13.50;99.90
9699;DHT22;10089;47.876;8.346;2022-09-03T05:31:04;13.60;99.90
9699;DHT22;10089;47.876;8.346;2022-09-03T05:33:34;13.60;99.90
9699;DHT22;10089;47.876;8.346;2022-09-03T05:36:02;13.50;99.90
9699;DHT22;10089;47.876;8.346;2022-09-03T05:38:28;13.50;99.90
9699;DHT22;10089;47.876;8.346;2022-09-03T05:40:58;13.60;99.90
9699;DHT22;10089;47.876;8.346;2022-09-03T05:43:24;13.50;99.90
9699;DHT22;10089;47.876;8.346;2022-09-03T05:45:50;13.60;99.90
9699;DHT22;10089;47.876;8.346;2022-09-03T05:48:15;13.60;99.90
9699;DHT22;10089;47.876;8.346;2022-09-03T05:50:41;13.60;99.90
9699;DHT22;10089;47.876;8.346;2022-09-03T05:53:07;13.60;99.90
9699;DHT22;10089;47.876;8.346;2022-09-03T05:55:33;13.80;99.90
9699;DHT22;10089;47.876;8.346;2022-09-03T05:57:59;13.50;99.90
9699;DHT22;10089;47.876;8.346;2022-09-03T06:00:24;13.60;99.90
9699;DHT22;10089;47.876;8.346;2022-09-03T06:02:51;13.70;99.90
9699;DHT22;10089;47.876;8.346;2022-09-03T06:05:18;13.40;99.90
9699;DHT22;10089;47.876;8.346;2022-09-03T06:07:44;13.50;99.90
9699;DHT22;10089;47.876;8.346;2022-09-03T06:10:13;13.50;99.90
9699;DHT22;10089;47.876;8.346;2022-09-03T06:12:41;13.50;99.90
9699;DHT22;10089;47.876;8.346;2022-09-03T06:15:07;13.50;99.90
9699;DHT22;10089;47.876;8.346;2022-09-03T06:17:33;13.60;99.90
9699;DHT22;10089;47.876;8.346;2022-09-03T06:19:59;13.70;99.90
9699;DHT22;10089;47.876;8.346;2022-09-03T06:22:25;13.70;99.90
9699;DHT22;10089;47.876;8.346;2022-09-03T06:24:53;13.70;99.90
9699;DHT22;10089;47.876;8.346;2022-09-03T06:27:18;13.70;99.90
9699;DHT22;10089;47.876;8.346;2022-09-03T06:29:45;13.70;99.90
9699;DHT22;10089;47.876;8.346;2022-09-03T06:32:11;13.50;99.90
9699;DHT22;10089;47.876;8.346;2022-09-03T06:34:37;13.60;99.90
9699;DHT22;10089;47.876;8.346;2022-09-03T06:37:03;13.70;99.90
9699;DHT22;10089;47.876;8.346;2022-09-03T06:39:29;13.60;99.90
9699;DHT22;10089;47.876;8.346;2022-09-03T06:41:55;13.80;99.90
9699;DHT22;10089;47.876;8.346;2022-09-03T06:44:21;13.80;99.90
9699;DHT22;10089;47.876;8.346;2022-09-03T06:46:46;13.50;99.90
9699;DHT22;10089;47.876;8.346;2022-09-03T06:49:13;13.80;99.90
9699;DHT22;10089;47.876;8.346;2022-09-03T06:51:39;13.60;99.90
9699;DHT22;10089;47.876;8.346;2022-09-03T06:54:10;13.70;99.90
9699;DHT22;10089;47.876;8.346;2022-09-03T06:56:38;13.70;99.90
9699;DHT22;10089;47.876;8.346;2022-09-03T06:59:12;13.70;99.90
9699;DHT22;10089;47.876;8.346;2022-09-03T07:01:39;13.80;99.90
9699;DHT22;10089;47.876;8.346;2022-09-03T07:04:07;13.90;99.90
9699;DHT22;10089;47.876;8.346;2022-09-03T07:06:38;13.90;99.90
9699;DHT22;10089;47.876;8.346;2022-09-03T07:09:06;13.80;99.90
9699;DHT22;10089;47.876;8.346;2022-09-03T07:11:32;14.40;99.90
9699;DHT22;10089;47.876;8.346;2022-09-03T07:14:01;15.00;99.90
9699;DHT22;10089;47.876;8.346;2022-09-03T07:16:35;15.70;99.90
9699;DHT22;10089;47.876;8.346;2022-09-03T07:19:01;16.20;99.90
9699;DHT22;10089;47.876;8.346;2022-09-03T07:21:29;16.70;99.90
9699;DHT22;10089;47.876;8.346;2022-09-03T07:23:56;16.00;99.90
9699;DHT22;10089;47.876;8.346;2022-09-03T07:26:24;16.60;99.90
9699;DHT22;10089;47.876;8.346;2022-09-03T07:28:51;17.30;99.90
9699;DHT22;10089;47.876;8.346;2022-09-03T07:31:24;17.80;99.90
9699;DHT22;10089;47.876;8.346;2022-09-03T07:36:22;16.70;99.90
9699;DHT22;10089;47.876;8.346;2022-09-03T07:38:48;17.30;99.90
9699;DHT22;10089;47.876;8.346;2022-09-03T07:41:14;17.90;99.90
9699;DHT22;10089;47.876;8.346;2022-09-03T07:43:42;18.50;99.90
9699;DHT22;10089;47.876;8.346;2022-09-03T08:24:06;19.10;99.90
9699;DHT22;10089;47.876;8.346;2022-09-03T08:26:42;20.40;99.90
9699;DHT22;10089;47.876;8.346;2022-09-03T08:29:13;19.40;99.90
9699;DHT22;10089;47.876;8.346;2022-09-03T08:32:09;19.10;99.90
9699;DHT22;10089;47.876;8.346;2022-09-03T08:34:43;18.60;99.90
9699;DHT22;10089;47.876;8.346;2022-09-03T08:37:14;18.90;99.90
9699;DHT22;10089;47.876;8.346;2022-09-03T08:40:12;18.30;99.90
9699;DHT22;10089;47.876;8.346;2022-09-03T08:43:03;17.20;99.90
9699;DHT22;10089;47.876;8.346;2022-09-03T08:45:35;18.60;99.90
9699;DHT22;10089;47.876;8.346;2022-09-03T08:48:16;17.60;99.90
9699;DHT22;10089;47.876;8.346;2022-09-03T08:50:48;17.90;99.90
9699;DHT22;10089;47.876;8.346;2022-09-03T08:53:27;18.30;99.90
9699;DHT22;10089;47.876;8.346;2022-09-03T08:56:08;18.40;99.90
9699;DHT22;10089;47.876;8.346;2022-09-03T08:58:37;18.00;99.90
9699;DHT22;10089;47.876;8.346;2022-09-03T09:17:22;18.80;99.90
9699;DHT22;10089;47.876;8.346;2022-09-03T09:23:05;18.60;99.90
9699;DHT22;10089;47.876;8.346;2022-09-03T09:25:31;18.80;99.90
9699;DHT22;10089;47.876;8.346;2022-09-03T09:28:17;18.90;99.90
9699;DHT22;10089;47.876;8.346;2022-09-03T09:30:48;18.60;99.90
9699;DHT22;10089;47.876;8.346;2022-09-03T09:33:17;18.20;99.90
9699;DHT22;10089;47.876;8.346;2022-09-03T09:35:44;18.00;99.90
9699;DHT22;10089;47.876;8.346;2022-09-03T09:38:11;18.00;99.90
9699;DHT22;10089;47.876;8.346;2022-09-03T09:40:39;18.10;99.90
9699;DHT22;10089;47.876;8.346;2022-09-03T09:43:24;18.40;99.90
9699;DHT22;10089;47.876;8.346;2022-09-03T09:45:51;17.80;99.90
9699;DHT22;10089;47.876;8.346;2022-09-03T09:50:47;17.60;99.90
9699;DHT22;10089;47.876;8.346;2022-09-03T09:53:16;17.40;99.90
9699;DHT22;10089;47.876;8.346;2022-09-03T09:55:56;16.90;99.90
9699;DHT22;10089;47.876;8.346;2022-09-03T09:58:40;16.50;99.90
9699;DHT22;10089;47.876;8.346;2022-09-03T10:01:14;16.30;99.90
9699;DHT22;10089;47.876;8.346;2022-09-03T10:03:52;15.90;99.90
9699;DHT22;10089;47.876;8.346;2022-09-03T10:06:30;14.80;99.90
9699;DHT22;10089;47.876;8.346;2022-09-03T10:09:17;13.90;99.90
9699;DHT22;10089;47.876;8.346;2022-09-03T10:12:02;13.70;99.90
9699;DHT22;10089;47.876;8.346;2022-09-03T10:14:41;13.50;99.90
9699;DHT22;10089;47.876;8.346;2022-09-03T10:20:00;13.70;99.90
9699;DHT22;10089;47.876;8.346;2022-09-03T10:22:53;13.90;99.90
9699;DHT22;10089;47.876;8.346;2022-09-03T10:25:20;14.10;99.90
9699;DHT22;10089;47.876;8.346;2022-09-03T10:27:50;14.30;99.90
9699;DHT22;10089;47.876;8.346;2022-09-03T10:30:18;14.50;99.90
9699;DHT22;10089;47.876;8.346;2022-09-03T10:35:35;14.90;99.90
9699;DHT22;10089;47.876;8.346;2022-09-03T10:38:25;14.90;99.90
9699;DHT22;10089;47.876;8.346;2022-09-03T10:46:25;15.50;99.90
9699;DHT22;10089;47.876;8.346;2022-09-03T10:49:18;15.70;99.90
9699;DHT22;10089;47.876;8.346;2022-09-03T10:51:59;15.80;99.90
9699;DHT22;10089;47.876;8.346;2022-09-03T11:00:07;15.80;99.90
9699;DHT22;10089;47.876;8.346;2022-09-03T11:05:31;16.20;99.90
9699;DHT22;10089;47.876;8.346;2022-09-03T11:08:11;16.30;99.90
9699;DHT22;10089;47.876;8.346;2022-09-03T11:10:45;16.30;99.90
9699;DHT22;10089;47.876;8.346;2022-09-03T11:13:34;16.00;99.90
9699;DHT22;10089;47.876;8.346;2022-09-03T11:16:31;15.90;99.90
9699;DHT22;10089;47.876;8.346;2022-09-03T11:19:16;15.20;99.90
9699;DHT22;10089;47.876;8.346;2022-09-03T11:21:44;15.10;99.90
9699;DHT22;10089;47.876;8.346;2022-09-03T11:24:19;15.00;99.90
9699;DHT22;10089;47.876;8.346;2022-09-03T11:26:52;14.90;99.90
9699;DHT22;10089;47.876;8.346;2022-09-03T11:29:32;14.80;99.90
9699;DHT22;10089;47.876;8.346;2022-09-03T11:32:07;15.00;99.90
9699;DHT22;10089;47.876;8.346;2022-09-03T11:34:53;15.50;99.90
9699;DHT22;10089;47.876;8.346;2022-09-03T11:37:24;15.80;99.90
9699;DHT22;10089;47.876;8.346;2022-09-03T11:40:03;16.00;99.90
9699;DHT22;10089;47.876;8.346;2022-09-03T11:45:11;16.20;99.90
9699;DHT22;10089;47.876;8.346;2022-09-03T11:47:42;16.40;99.90
9699;DHT22;10089;47.876;8.346;2022-09-03T11:50:28;16.40;99.90
9699;DHT22;10089;47.876;8.346;2022-09-03T11:53:08;16.50;99.90
9699;DHT22;10089;47.876;8.346;2022-09-03T11:55:55;16.40;99.90
9699;DHT22;10089;47.876;8.346;2022-09-03T11:58:36;16.40;99.90
9699;DHT22;10089;47.876;8.346;2022-09-03T12:01:14;16.20;99.90
9699;DHT22;10089;47.876;8.346;2022-09-03T12:04:00;16.50;99.90
9699;DHT22;10089;47.876;8.346;2022-09-03T12:15:39;16.00;99.90
9699;DHT22;10089;47.876;8.346;2022-09-03T12:18:15;16.10;99.90
9699;DHT22;10089;47.876;8.346;2022-09-03T12:21:08;16.30;99.90
9699;DHT22;10089;47.876;8.346;2022-09-03T12:23:51;16.10;99.90
9699;DHT22;10089;47.876;8.346;2022-09-03T12:26:27;16.20;99.90
9699;DHT22;10089;47.876;8.346;2022-09-03T12:28:55;16.30;99.90
9699;DHT22;10089;47.876;8.346;2022-09-03T12:31:24;16.60;99.90
9699;DHT22;10089;47.876;8.346;2022-09-03T12:34:02;17.10;99.90
9699;DHT22;10089;47.876;8.346;2022-09-03T12:36:40;17.80;99.90
9699;DHT22;10089;47.876;8.346;2022-09-03T12:39:15;17.90;99.90
9699;DHT22;10089;47.876;8.346;2022-09-03T12:42:02;18.50;99.90
9699;DHT22;10089;47.876;8.346;2022-09-03T12:47:09;18.50;99.90
9699;DHT22;10089;47.876;8.346;2022-09-03T12:49:41;19.00;99.90
9699;DHT22;10089;47.876;8.346;2022-09-03T12:55:34;18.70;99.90
9699;DHT22;10089;47.876;8.346;2022-09-03T12:57:39;18.40;99.90
9699;DHT22;10089;47.876;8.346;2022-09-03T13:00:11;18.50;99.90
9699;DHT22;10089;47.876;8.346;2022-09-03T13:05:17;18.90;99.90
9699;DHT22;10089;47.876;8.346;2022-09-03T13:07:48;19.50;99.90
9699;DHT22;10089;47.876;8.346;2022-09-03T13:10:37;19.20;99.90
9699;DHT22;10089;47.876;8.346;2022-09-03T13:13:33;18.70;99.90
9699;DHT22;10089;47.876;8.346;2022-09-03T13:40:09;18.70;99.90
9699;DHT22;10089;47.876;8.346;2022-09-03T13:42:35;18.70;99.90
9699;DHT22;10089;47.876;8.346;2022-09-03T13:48:14;18.90;99.90
9699;DHT22;10089;47.876;8.346;2022-09-03T13:56:49;19.00;99.90
9699;DHT22;10089;47.876;8.346;2022-09-03T14:04:58;19.40;99.90
9699;DHT22;10089;47.876;8.346;2022-09-03T14:07:47;19.80;99.90
9699;DHT22;10089;47.876;8.346;2022-09-03T14:10:49;20.00;99.90
9699;DHT22;10089;47.876;8.346;2022-09-03T14:16:19;19.80;99.90
9699;DHT22;10089;47.876;8.346;2022-09-03T14:21:55;19.50;99.90
9699;DHT22;10089;47.876;8.346;2022-09-03T14:26:58;19.50;99.90
9699;DHT22;10089;47.876;8.346;2022-09-03T14:29:29;19.30;99.90
9699;DHT22;10089;47.876;8.346;2022-09-03T14:39:54;19.60;99.90
9699;DHT22;10089;47.876;8.346;2022-09-03T14:45:31;19.40;99.90
9699;DHT22;10089;47.876;8.346;2022-09-03T14:56:52;19.90;99.90
9699;DHT22;10089;47.876;8.346;2022-09-03T15:05:14;20.30;99.90
9699;DHT22;10089;47.876;8.346;2022-09-03T15:10:59;20.00;99.90
9699;DHT22;10089;47.876;8.346;2022-09-03T15:13:29;20.00;99.90
9699;DHT22;10089;47.876;8.346;2022-09-03T15:33:09;20.20;99.90
9699;DHT22;10089;47.876;8.346;2022-09-03T15:36:09;20.10;99.90
9699;DHT22;10089;47.876;8.346;2022-09-03T15:43:59;20.20;99.90
9699;DHT22;10089;47.876;8.346;2022-09-03T15:54:47;20.10;99.90
9699;DHT22;10089;47.876;8.346;2022-09-03T15:57:20;20.10;99.90
9699;DHT22;10089;47.876;8.346;2022-09-03T16:00:08;20.10;99.90
9699;DHT22;10089;47.876;8.346;2022-09-03T16:02:57;20.10;99.90
9699;DHT22;10089;47.876;8.346;2022-09-03T16:05:40;20.10;99.90
9699;DHT22;10089;47.876;8.346;2022-09-03T16:11:00;19.80;99.90
9699;DHT22;10089;47.876;8.346;2022-09-03T16:16:25;19.70;99.90
9699;DHT22;10089;47.876;8.346;2022-09-03T16:29:18;19.20;99.90
9699;DHT22;10089;47.876;8.346;2022-09-03T16:42:52;19.20;99.90
9699;DHT22;10089;47.876;8.346;2022-09-03T16:48:22;19.10;99.90
9699;DHT22;10089;47.876;8.346;2022-09-03T16:50:55;18.90;99.90
9699;DHT22;10089;47.876;8.346;2022-09-03T16:56:37;18.70;99.90
9699;DHT22;10089;47.876;8.346;2022-09-03T17:22:08;18.30;99.90
9699;DHT22;10089;47.876;8.346;2022-09-03T17:24:50;18.20;99.90
9699;DHT22;10089;47.876;8.346;2022-09-03T17:27:52;18.20;99.90
9699;DHT22;10089;47.876;8.346;2022-09-03T17:30:31;18.10;99.90
9699;DHT22;10089;47.876;8.346;2022-09-03T17:35:49;18.00;99.90
9699;DHT22;10089;47.876;8.346;2022-09-03T17:44:13;17.70;99.90
9699;DHT22;10089;47.876;8.346;2022-09-03T17:49:46;17.60;99.90
9699;DHT22;10089;47.876;8.346;2022-09-03T17:52:40;17.50;99.90
9699;DHT22;10089;47.876;8.346;2022-09-03T18:01:16;17.30;99.90
9699;DHT22;10089;47.876;8.346;2022-09-03T18:04:15;16.60;99.90
9699;DHT22;10089;47.876;8.346;2022-09-03T18:09:31;16.90;99.90
9699;DHT22;10089;47.876;8.346;2022-09-03T18:12:13;16.90;99.90
9699;DHT22;10089;47.876;8.346;2022-09-03T18:14:54;16.70;99.90
9699;DHT22;10089;47.876;8.346;2022-09-03T18:20:20;16.60;99.90
9699;DHT22;10089;47.876;8.346;2022-09-03T18:23:28;16.60;99.90
9699;DHT22;10089;47.876;8.346;2022-09-03T18:26:21;16.60;99.90
9699;DHT22;10089;47.876;8.346;2022-09-03T18:29:17;16.50;99.90
9699;DHT22;10089;47.876;8.346;2022-09-03T18:32:02;16.50;99.90
9699;DHT22;10089;47.876;8.346;2022-09-03T18:34:48;16.40;99.90
9699;DHT22;10089;47.876;8.346;2022-09-03T18:37:32;16.40;99.90
9699;DHT22;10089;47.876;8.346;2022-09-03T18:40:20;16.40;99.90
9699;DHT22;10089;47.876;8.346;2022-09-03T18:43:21;16.30;99.90
9699;DHT22;10089;47.876;8.346;2022-09-03T18:46:58;16.20;99.90
9699;DHT22;10089;47.876;8.346;2022-09-03T18:49:28;16.30;99.90
9699;DHT22;10089;47.876;8.346;2022-09-03T18:58:30;16.20;99.90
9699;DHT22;10089;47.876;8.346;2022-09-03T19:01:35;16.20;99.90
9699;DHT22;10089;47.876;8.346;2022-09-03T19:07:46;16.20;99.90
9699;DHT22;10089;47.876;8.346;2022-09-03T19:10:47;16.20;99.90
9699;DHT22;10089;47.876;8.346;2022-09-03T19:13:34;16.10;99.90
9699;DHT22;10089;47.876;8.346;2022-09-03T19:22:35;16.00;99.90
9699;DHT22;10089;47.876;8.346;2022-09-03T19:25:20;16.00;99.90
9699;DHT22;10089;47.876;8.346;2022-09-03T19:28:25;15.90;99.90
9699;DHT22;10089;47.876;8.346;2022-09-03T19:31:44;15.80;99.90
9699;DHT22;10089;47.876;8.346;2022-09-03T19:37:39;15.80;99.90
9699;DHT22;10089;47.876;8.346;2022-09-03T19:48:01;15.70;99.90
9699;DHT22;10089;47.876;8.346;2022-09-03T19:51:04;15.70;99.90
9699;DHT22;10089;47.876;8.346;2022-09-03T19:53:50;15.70;99.90
9699;DHT22;10089;47.876;8.346;2022-09-03T19:56:36;15.60;99.90
9699;DHT22;10089;47.876;8.346;2022-09-03T19:59:24;15.60;99.90
9699;DHT22;10089;47.876;8.346;2022-09-03T20:02:09;15.50;99.90
9699;DHT22;10089;47.876;8.346;2022-09-03T20:04:59;15.40;99.90
9699;DHT22;10089;47.876;8.346;2022-09-03T20:07:45;15.40;99.90
9699;DHT22;10089;47.876;8.346;2022-09-03T20:10:31;15.20;99.90
9699;DHT22;10089;47.876;8.346;2022-09-03T20:18:23;15.10;99.90
9699;DHT22;10089;47.876;8.346;2022-09-03T20:31:45;14.90;99.90
9699;DHT22;10089;47.876;8.346;2022-09-03T20:45:18;14.90;99.90
9699;DHT22;10089;47.876;8.346;2022-09-03T20:50:47;14.90;99.90
9699;DHT22;10089;47.876;8.346;2022-09-03T20:53:21;14.90;99.90
9699;DHT22;10089;47.876;8.346;2022-09-03T20:55:51;14.90;99.90
9699;DHT22;10089;47.876;8.346;2022-09-03T21:17:23;14.50;99.90
9699;DHT22;10089;47.876;8.346;2022-09-03T21:20:27;14.60;99.90
9699;DHT22;10089;47.876;8.346;2022-09-03T21:23:20;14.50;99.90
9699;DHT22;10089;47.876;8.346;2022-09-03T21:31:30;14.20;99.90
9699;DHT22;10089;47.876;8.346;2022-09-03T21:34:08;14.20;99.90
9699;DHT22;10089;47.876;8.346;2022-09-03T21:36:39;14.10;99.90
9699;DHT22;10089;47.876;8.346;2022-09-03T21:39:18;14.10;99.90
9699;DHT22;10089;47.876;8.346;2022-09-03T21:42:42;14.20;99.90
9699;DHT22;10089;47.876;8.346;2022-09-03T21:47:52;14.10;99.90
9699;DHT22;10089;47.876;8.346;2022-09-03T21:50:28;14.10;99.90
9699;DHT22;10089;47.876;8.346;2022-09-03T21:53:02;14.10;99.90
9699;DHT22;10089;47.876;8.346;2022-09-03T21:55:53;14.00;99.90
9699;DHT22;10089;47.876;8.346;2022-09-03T22:01:06;14.00;99.90
9699;DHT22;10089;47.876;8.346;2022-09-03T22:03:34;13.90;99.90
9699;DHT22;10089;47.876;8.346;2022-09-03T22:06:08;13.80;99.90
9699;DHT22;10089;47.876;8.346;2022-09-03T22:09:11;13.80;99.90
9699;DHT22;10089;47.876;8.346;2022-09-03T22:11:59;13.80;99.90
9699;DHT22;10089;47.876;8.346;2022-09-03T22:14:31;13.70;99.90
9699;DHT22;10089;47.876;8.346;2022-09-03T22:17:08;13.70;99.90
9699;DHT22;10089;47.876;8.346;2022-09-03T22:19:36;13.70;99.90
9699;DHT22;10089;47.876;8.346;2022-09-03T22:22:13;13.70;99.90
9699;DHT22;10089;47.876;8.346;2022-09-03T22:25:04;13.70;99.90
9699;DHT22;10089;47.876;8.346;2022-09-03T22:30:31;13.00;99.90
9699;DHT22;10089;47.876;8.346;2022-09-03T22:33:17;13.00;99.90
9699;DHT22;10089;47.876;8.346;2022-09-03T22:49:54;13.30;99.90
9699;DHT22;10089;47.876;8.346;2022-09-03T22:55:05;13.40;99.90
9699;DHT22;10089;47.876;8.346;2022-09-03T22:57:48;13.30;99.90
9699;DHT22;10089;47.876;8.346;2022-09-03T23:00:16;13.40;99.90
9699;DHT22;10089;47.876;8.346;2022-09-03T23:02:45;13.30;99.90
9699;DHT22;10089;47.876;8.346;2022-09-03T23:05:49;13.30;99.90
9699;DHT22;10089;47.876;8.346;2022-09-03T23:08:32;13.20;99.90
9699;DHT22;10089;47.876;8.346;2022-09-03T23:11:11;13.20;99.90
9699;DHT22;10089;47.876;8.346;2022-09-03T23:13:53;13.10;99.90
9699;DHT22;10089;47.876;8.346;2022-09-03T23:16:44;13.10;99.90
9699;DHT22;10089;47.876;8.346;2022-09-03T23:19:33;13.10;99.90
9699;DHT22;10089;47.876;8.346;2022-09-03T23:22:36;13.10;99.90
9699;DHT22;10089;47.876;8.346;2022-09-03T23:25:22;13.10;99.90
9699;DHT22;10089;47.876;8.346;2022-09-03T23:28:01;13.10;99.90
9699;DHT22;10089;47.876;8.346;2022-09-03T23:30:29;13.10;99.90
9699;DHT22;10089;47.876;8.346;2022-09-03T23:32:57;13.10;99.90
9699;DHT22;10089;47.876;8.346;2022-09-03T23:35:27;13.20;99.90
9699;DHT22;10089;47.876;8.346;2022-09-03T23:38:18;13.20;99.90
9699;DHT22;10089;47.876;8.346;2022-09-03T23:40:56;13.20;99.90
9699;DHT22;10089;47.876;8.346;2022-09-03T23:46:36;13.30;99.90
9699;DHT22;10089;47.876;8.346;2022-09-03T23:52:06;13.20;99.90
9699;DHT22;10089;47.876;8.346;2022-09-03T23:54:38;13.30;99.90
9699;DHT22;10089;47.876;8.346;2022-09-03T23:57:22;13.30;99.90
